createdAt,value
2018-04-16T00:00:47.970Z,42.80
2018-04-16T00:03:15.760Z,36.10
2018-04-16T00:05:43.596Z,43.10
2018-04-16T00:08:11.488Z,41.10
2018-04-16T00:10:39.340Z,39.77
2018-04-16T00:13:07.091Z,45.30
2018-04-16T00:15:34.879Z,44.43
2018-04-16T00:18:02.824Z,36.93
2018-04-16T00:20:30.618Z,38.53
2018-04-16T00:22:58.444Z,37.03
2018-04-16T00:25:27.096Z,34.13
2018-04-16T00:27:54.835Z,30.70
2018-04-16T00:30:22.994Z,33.93
2018-04-16T00:32:56.538Z,36.53
2018-04-16T00:38:29.952Z,45.97
2018-04-16T00:41:03.401Z,43.57
2018-04-16T00:43:36.771Z,42.57
2018-04-16T00:46:10.949Z,43.33
2018-04-16T00:48:44.306Z,42.07
2018-04-16T00:51:17.603Z,55.73
2018-04-16T00:54:03.120Z,50.93
2018-04-16T00:56:36.444Z,53.93
2018-04-16T00:59:09.898Z,56.57
2018-04-16T01:01:43.397Z,43.03
2018-04-16T01:04:16.715Z,45.50
2018-04-16T01:06:50.778Z,41.77
2018-04-16T01:09:24.387Z,39.80
2018-04-16T01:11:57.849Z,36.93
2018-04-16T01:14:31.237Z,39.83
2018-04-16T01:17:04.643Z,44.03
2018-04-16T01:19:38.091Z,38.17
2018-04-16T01:22:11.547Z,43.27
2018-04-16T01:24:45.675Z,40.73
2018-04-16T01:27:19.845Z,35.30
2018-04-16T01:29:53.262Z,40.83
2018-04-16T01:32:27.224Z,35.27
2018-04-16T01:35:00.607Z,33.97
2018-04-16T01:37:34.095Z,40.83
2018-04-16T01:40:08.176Z,41.90
2018-04-16T01:42:42.137Z,38.50
2018-04-16T01:45:15.583Z,46.77
2018-04-16T01:47:49.157Z,37.77
2018-04-16T01:50:23.144Z,32.27
2018-04-16T01:52:56.564Z,36.77
2018-04-16T01:55:30.096Z,43.50
2018-04-16T01:58:03.374Z,41.60
2018-04-16T02:00:37.002Z,38.87
2018-04-16T02:03:10.340Z,47.50
2018-04-16T02:05:43.922Z,51.90
2018-04-16T02:08:17.442Z,58.70
2018-04-16T02:10:50.909Z,41.97
2018-04-16T02:13:25.050Z,51.47
2018-04-16T02:15:58.602Z,46.87
2018-04-16T02:18:31.999Z,61.73
2018-04-16T02:21:05.315Z,66.63
2018-04-16T02:23:38.785Z,85.37
2018-04-16T02:26:12.163Z,68.23
2018-04-16T02:28:45.697Z,59.20
2018-04-16T02:31:19.095Z,58.47
2018-04-16T02:33:53.191Z,48.60
2018-04-16T02:36:26.717Z,33.13
2018-04-16T02:39:00.846Z,48.90
2018-04-16T02:41:34.208Z,46.67
2018-04-16T02:44:07.740Z,59.30
2018-04-16T02:46:41.823Z,58.27
2018-04-16T02:49:15.313Z,73.60
2018-04-16T02:51:48.761Z,73.80
2018-04-16T02:54:22.161Z,77.03
2018-04-16T02:56:55.822Z,68.63
2018-04-16T02:59:29.184Z,77.90
2018-04-16T03:02:02.926Z,72.40
2018-04-16T03:04:36.489Z,60.00
2018-04-16T03:07:10.452Z,55.70
2018-04-16T03:09:44.617Z,50.10
2018-04-16T03:12:17.975Z,50.33
2018-04-16T03:14:52.147Z,51.10
2018-04-16T03:17:25.524Z,71.17
2018-04-16T03:19:58.959Z,66.13
2018-04-16T03:22:32.229Z,54.57
2018-04-16T03:25:06.311Z,60.67
2018-04-16T03:27:39.593Z,39.50
2018-04-16T03:30:13.009Z,42.93
2018-04-16T03:32:46.365Z,38.57
2018-04-16T03:38:22.559Z,54.63
2018-04-16T03:40:56.814Z,52.33
2018-04-16T03:46:35.000Z,55.90
2018-04-16T03:49:09.434Z,54.67
2018-04-16T03:51:38.018Z,43.30
2018-04-16T03:54:05.863Z,40.03
2018-04-16T03:56:34.398Z,36.50
2018-04-16T03:59:02.316Z,43.90
2018-04-16T04:01:30.831Z,48.30
2018-04-16T04:03:58.579Z,48.43
2018-04-16T04:06:27.228Z,55.37
2018-04-16T04:08:54.989Z,49.83
2018-04-16T04:11:22.796Z,53.50
2018-04-16T04:13:51.402Z,47.80
2018-04-16T04:16:19.685Z,51.73
2018-04-16T04:18:47.501Z,50.33
2018-04-16T04:21:15.335Z,45.33
2018-04-16T04:23:54.816Z,43.23
2018-04-16T04:26:35.259Z,37.43
2018-04-16T04:29:14.822Z,36.87
2018-04-16T04:31:43.404Z,36.70
2018-04-16T04:34:11.958Z,38.10
2018-04-16T04:36:39.753Z,31.70
2018-04-16T04:39:08.273Z,32.23
2018-04-16T04:41:36.065Z,28.30
2018-04-16T04:44:03.837Z,25.97
2018-04-16T04:46:31.707Z,23.60
2018-04-16T04:48:59.508Z,27.07
2018-04-16T04:51:28.070Z,28.00
2018-04-16T04:53:56.040Z,31.80
2018-04-16T04:56:23.844Z,30.63
2018-04-16T04:58:51.583Z,29.53
2018-04-16T05:01:20.132Z,29.70
2018-04-16T05:03:47.987Z,34.20
2018-04-16T05:06:15.896Z,31.27
2018-04-16T05:08:44.419Z,29.93
2018-04-16T05:11:12.222Z,33.20
2018-04-16T05:13:40.081Z,28.37
2018-04-16T05:16:07.986Z,27.20
2018-04-16T05:18:36.571Z,22.00
2018-04-16T05:21:05.121Z,21.80
2018-04-16T05:23:32.972Z,19.23
2018-04-16T05:26:00.733Z,19.63
2018-04-16T05:28:28.526Z,15.33
2018-04-16T05:30:56.304Z,14.53
2018-04-16T05:33:24.115Z,16.97
2018-04-16T05:35:51.903Z,13.73
2018-04-16T05:38:19.681Z,11.80
2018-04-16T05:40:47.450Z,11.93
2018-04-16T05:43:15.253Z,15.97
2018-04-16T05:45:43.044Z,13.00
2018-04-16T05:48:10.844Z,12.37
2018-04-16T05:50:42.110Z,19.73
2018-04-16T05:53:12.478Z,15.20
2018-04-16T05:55:40.391Z,13.40
2018-04-16T05:58:08.193Z,12.80
2018-04-16T06:00:36.369Z,14.73
2018-04-16T06:03:04.129Z,17.27
2018-04-16T06:05:31.907Z,14.97
2018-04-16T06:07:59.914Z,16.10
2018-04-16T06:10:27.675Z,19.40
2018-04-16T06:12:55.794Z,14.13
2018-04-16T06:15:24.309Z,15.23
2018-04-16T06:17:52.080Z,14.40
2018-04-16T06:20:20.022Z,16.43
2018-04-16T06:22:47.833Z,18.33
2018-04-16T06:25:15.653Z,16.43
2018-04-16T06:27:43.514Z,12.60
2018-04-16T06:30:12.300Z,14.40
2018-04-16T06:32:40.826Z,22.20
2018-04-16T06:35:09.090Z,18.03
2018-04-16T06:37:36.855Z,14.43
2018-04-16T06:40:04.620Z,16.27
2018-04-16T06:42:32.404Z,9.87
2018-04-16T06:45:00.219Z,12.97
2018-04-16T06:47:29.106Z,11.50
2018-04-16T06:49:59.390Z,10.70
2018-04-16T06:52:27.178Z,7.83
2018-04-16T06:54:54.951Z,10.63
2018-04-16T06:57:23.501Z,7.00
2018-04-16T06:59:51.333Z,7.73
2018-04-16T07:02:19.114Z,6.73
2018-04-16T07:04:46.886Z,11.33
2018-04-16T07:07:14.782Z,8.50
2018-04-16T07:09:42.609Z,7.97
2018-04-16T07:12:10.988Z,7.80
2018-04-16T07:14:38.789Z,6.77
2018-04-16T07:17:06.616Z,9.87
2018-04-16T07:19:34.439Z,7.47
2018-04-16T07:22:03.025Z,6.67
2018-04-16T07:24:31.825Z,10.73
2018-04-16T07:27:00.411Z,6.27
2018-04-16T07:29:28.254Z,11.40
2018-04-16T07:31:55.987Z,8.07
2018-04-16T07:34:24.198Z,7.23
2018-04-16T07:36:51.988Z,6.23
2018-04-16T07:39:19.725Z,6.70
2018-04-16T07:41:48.205Z,7.13
2018-04-16T07:44:15.964Z,9.17
2018-04-16T07:46:43.710Z,4.93
2018-04-16T07:49:11.631Z,9.27
2018-04-16T07:51:40.204Z,5.63
2018-04-16T07:54:08.782Z,6.80
2018-04-16T07:56:37.393Z,7.20
2018-04-16T07:59:05.153Z,7.63
2018-04-16T08:01:33.423Z,10.00
2018-04-16T08:04:02.905Z,7.70
2018-04-16T08:06:30.732Z,7.53
2018-04-16T08:08:59.395Z,8.83
2018-04-16T08:11:27.209Z,8.63
2018-04-16T08:13:54.991Z,10.17
2018-04-16T08:16:22.840Z,8.33
2018-04-16T08:18:51.363Z,8.83
2018-04-16T08:21:20.332Z,9.40
2018-04-16T08:23:48.079Z,7.97
2018-04-16T08:26:15.889Z,15.20
2018-04-16T08:28:44.443Z,8.03
2018-04-16T08:31:12.311Z,10.20
2018-04-16T08:33:40.124Z,10.43
2018-04-16T08:36:07.956Z,12.63
2018-04-16T08:38:36.711Z,11.70
2018-04-16T08:41:05.241Z,9.43
2018-04-16T08:43:33.049Z,10.53
2018-04-16T08:46:00.915Z,10.90
2018-04-16T08:48:28.773Z,9.60
2018-04-16T08:50:56.683Z,13.33
2018-04-16T08:53:24.471Z,14.10
2018-04-16T08:55:52.995Z,13.17
2018-04-16T08:58:20.849Z,11.70
2018-04-16T09:00:48.762Z,12.60
2018-04-16T09:03:16.521Z,11.77
2018-04-16T09:05:44.292Z,14.23
2018-04-16T09:08:12.115Z,12.50
2018-04-16T09:10:39.873Z,8.90
2018-04-16T09:13:07.763Z,11.83
2018-04-16T09:15:36.320Z,12.90
2018-04-16T09:18:04.292Z,9.23
2018-04-16T09:20:32.084Z,8.50
2018-04-16T09:22:59.893Z,9.13
2018-04-16T09:25:28.437Z,15.13
2018-04-16T09:27:56.215Z,9.33
2018-04-16T09:30:24.100Z,8.40
2018-04-16T09:32:52.633Z,8.97
2018-04-16T09:35:20.452Z,8.53
2018-04-16T09:37:49.141Z,10.00
2018-04-16T09:40:16.976Z,7.97
2018-04-16T09:42:44.721Z,7.10
2018-04-16T09:45:12.521Z,10.50
2018-04-16T09:47:40.520Z,11.73
2018-04-16T09:50:09.041Z,10.63
2018-04-16T09:52:36.795Z,10.40
2018-04-16T09:55:04.662Z,11.90
2018-04-16T09:57:32.404Z,15.30
2018-04-16T10:00:00.254Z,10.00
2018-04-16T10:02:28.922Z,11.30
2018-04-16T10:04:56.678Z,13.73
2018-04-16T10:07:24.480Z,13.57
2018-04-16T10:09:53.479Z,14.50
2018-04-16T10:12:21.986Z,8.67
2018-04-16T10:14:49.746Z,11.27
2018-04-16T10:17:17.540Z,13.10
2018-04-16T10:19:45.353Z,13.70
2018-04-16T10:22:13.974Z,11.50
2018-04-16T10:24:41.781Z,11.37
2018-04-16T10:27:09.595Z,12.40
2018-04-16T10:29:37.406Z,15.57
2018-04-16T10:32:05.628Z,10.17
2018-04-16T10:34:33.416Z,9.80
2018-04-16T10:37:01.176Z,12.30
2018-04-16T10:39:28.967Z,16.70
2018-04-16T10:41:56.789Z,11.37
2018-04-16T10:44:24.620Z,9.13
2018-04-16T10:46:52.375Z,10.77
2018-04-16T10:49:20.258Z,14.77
2018-04-16T10:51:48.056Z,15.03
2018-04-16T10:54:15.810Z,15.60
2018-04-16T10:56:43.600Z,14.47
2018-04-16T10:59:11.396Z,18.70
2018-04-16T11:01:39.800Z,16.10
2018-04-16T11:04:08.316Z,10.70
2018-04-16T11:06:36.081Z,16.80
2018-04-16T11:09:03.989Z,12.60
2018-04-16T11:11:31.743Z,11.87
2018-04-16T11:13:59.574Z,9.27
2018-04-16T11:16:27.447Z,9.90
2018-04-16T11:18:55.306Z,10.97
2018-04-16T11:21:23.081Z,13.10
2018-04-16T11:23:50.940Z,7.27
2018-04-16T11:26:18.761Z,7.80
2018-04-16T11:28:46.569Z,10.63
2018-04-16T11:31:14.343Z,9.43
2018-04-16T11:33:42.097Z,8.97
2018-04-16T11:36:09.885Z,9.97
2018-04-16T11:38:37.733Z,11.17
2018-04-16T11:41:05.526Z,6.67
2018-04-16T11:43:33.310Z,10.80
2018-04-16T11:46:01.157Z,6.33
2018-04-16T11:48:28.906Z,7.60
2018-04-16T11:50:56.679Z,6.73
2018-04-16T11:53:24.432Z,9.43
2018-04-16T11:55:52.360Z,7.10
2018-04-16T11:58:20.164Z,6.87
2018-04-16T12:00:47.986Z,4.67
2018-04-16T12:03:15.768Z,7.30
2018-04-16T12:05:44.346Z,5.67
2018-04-16T12:08:13.027Z,6.80
2018-04-16T12:10:40.885Z,9.63
2018-04-16T12:13:08.627Z,5.77
2018-04-16T12:15:36.427Z,10.13
2018-04-16T12:18:04.272Z,11.90
2018-04-16T12:20:32.121Z,9.33
2018-04-16T12:23:00.946Z,9.20
2018-04-16T12:25:30.867Z,11.60
2018-04-16T12:28:01.019Z,12.23
2018-04-16T12:30:30.716Z,10.57
2018-04-16T12:32:58.651Z,11.07
2018-04-16T12:35:26.443Z,9.43
2018-04-16T12:37:54.990Z,12.13
2018-04-16T12:40:23.553Z,9.70
2018-04-16T12:42:51.342Z,9.67
2018-04-16T12:45:19.108Z,8.20
2018-04-16T12:47:47.097Z,12.93
2018-04-16T12:50:14.922Z,5.77
2018-04-16T12:52:42.694Z,7.27
2018-04-16T12:55:10.485Z,14.23
2018-04-16T12:57:38.233Z,7.97
2018-04-16T13:00:06.059Z,9.53
2018-04-16T13:02:33.817Z,9.23
2018-04-16T13:05:01.621Z,9.63
2018-04-16T13:07:29.571Z,12.13
2018-04-16T13:09:57.562Z,9.87
2018-04-16T13:12:26.176Z,10.97
2018-04-16T13:14:53.923Z,8.67
2018-04-16T13:17:21.794Z,5.97
2018-04-16T13:19:49.604Z,5.70
2018-04-16T13:22:17.421Z,4.30
2018-04-16T13:24:45.193Z,7.23
2018-04-16T13:27:13.041Z,7.90
2018-04-16T13:29:41.299Z,5.70
2018-04-16T13:32:09.061Z,7.77
2018-04-16T13:34:36.811Z,6.23
2018-04-16T13:37:04.596Z,8.80
2018-04-16T13:39:32.365Z,11.23
2018-04-16T13:42:00.161Z,5.70
2018-04-16T13:44:27.960Z,7.20
2018-04-16T13:46:56.511Z,4.90
2018-04-16T13:49:24.686Z,11.63
2018-04-16T13:51:52.432Z,9.00
2018-04-16T13:54:20.273Z,4.27
2018-04-16T13:56:48.587Z,6.67
2018-04-16T13:59:16.355Z,7.20
2018-04-16T14:01:44.098Z,4.50
2018-04-16T14:04:12.312Z,6.90
2018-04-16T14:06:40.914Z,7.80
2018-04-16T14:09:09.449Z,5.07
2018-04-16T14:11:39.519Z,7.47
2018-04-16T14:14:08.112Z,6.07
2018-04-16T14:16:36.000Z,5.50
2018-04-16T14:19:05.202Z,5.67
2018-04-16T14:21:32.993Z,5.70
2018-04-16T14:24:00.739Z,13.17
2018-04-16T14:26:28.541Z,7.60
2018-04-16T14:28:56.311Z,7.83
2018-04-16T14:31:24.094Z,6.13
2018-04-16T14:33:52.690Z,8.57
2018-04-16T14:36:22.624Z,13.03
2018-04-16T14:38:57.134Z,6.30
2018-04-16T14:41:24.918Z,8.33
2018-04-16T14:43:52.737Z,5.43
2018-04-16T14:46:21.403Z,5.13
2018-04-16T14:48:49.178Z,6.07
2018-04-16T14:51:16.911Z,6.33
2018-04-16T14:53:44.749Z,11.80
2018-04-16T14:56:12.524Z,9.17
2018-04-16T14:58:40.341Z,13.83
2018-04-16T15:01:09.062Z,13.87
2018-04-16T15:03:36.846Z,6.23
2018-04-16T15:06:05.054Z,8.63
2018-04-16T15:08:32.834Z,11.03
2018-04-16T15:11:00.649Z,8.97
2018-04-16T15:13:29.514Z,18.67
2018-04-16T15:15:58.160Z,13.37
2018-04-16T15:18:26.197Z,8.07
2018-04-16T15:20:53.992Z,8.57
2018-04-16T15:23:21.782Z,9.90
2018-04-16T15:25:50.330Z,12.30
2018-04-16T15:28:18.197Z,4.20
2018-04-16T15:30:46.344Z,9.90
2018-04-16T15:33:14.086Z,11.13
2018-04-16T15:35:43.715Z,7.70
2018-04-16T15:38:11.493Z,11.13
2018-04-16T15:40:39.235Z,8.60
2018-04-16T15:43:07.009Z,9.80
2018-04-16T15:45:34.839Z,8.70
2018-04-16T15:48:02.688Z,10.63
2018-04-16T15:50:30.459Z,11.13
2018-04-16T15:52:58.212Z,14.47
2018-04-16T15:55:26.037Z,7.83
2018-04-16T15:57:53.836Z,7.60
2018-04-16T16:00:21.581Z,11.20
2018-04-16T16:02:49.571Z,10.50
2018-04-16T16:05:17.394Z,7.50
2018-04-16T16:07:45.194Z,8.00
2018-04-16T16:10:13.056Z,11.27
2018-04-16T16:12:40.817Z,10.40
2018-04-16T16:15:08.673Z,5.93
2018-04-16T16:17:36.631Z,7.77
2018-04-16T16:20:04.432Z,8.00
2018-04-16T16:22:32.178Z,17.57
2018-04-16T16:25:00.075Z,8.80
2018-04-16T16:27:27.840Z,16.53
2018-04-16T16:29:55.597Z,6.57
2018-04-16T16:32:23.384Z,6.80
2018-04-16T16:34:51.306Z,18.70
2018-04-16T16:37:19.126Z,13.67
2018-04-16T16:39:46.866Z,15.73
2018-04-16T16:42:15.533Z,14.73
2018-04-16T16:44:43.349Z,12.37
2018-04-16T16:47:12.077Z,7.23
2018-04-16T16:49:39.831Z,12.67
2018-04-16T16:52:07.655Z,10.00
2018-04-16T16:54:35.460Z,25.70
2018-04-16T16:57:03.301Z,20.23
2018-04-16T16:59:31.876Z,18.60
2018-04-16T17:01:59.643Z,10.50
2018-04-16T17:04:27.461Z,17.87
2018-04-16T17:06:55.233Z,10.90
2018-04-16T17:09:23.016Z,15.83
2018-04-16T17:11:50.823Z,11.50
2018-04-16T17:14:19.369Z,15.33
2018-04-16T17:16:47.156Z,20.40
2018-04-16T17:19:15.669Z,15.27
2018-04-16T17:21:43.466Z,12.80
2018-04-16T17:24:11.202Z,5.83
2018-04-16T17:26:39.012Z,11.60
2018-04-16T17:29:06.773Z,25.57
2018-04-16T17:31:34.615Z,10.50
2018-04-16T17:34:02.434Z,10.20
2018-04-16T17:36:31.133Z,17.77
2018-04-16T17:38:59.759Z,13.53
2018-04-16T17:41:27.517Z,12.63
2018-04-16T17:43:55.328Z,15.00
2018-04-16T17:46:23.108Z,22.50
2018-04-16T17:48:51.644Z,14.20
2018-04-16T17:51:19.618Z,14.33
2018-04-16T17:53:47.668Z,13.50
2018-04-16T17:56:16.179Z,19.83
2018-04-16T17:58:44.475Z,16.93
2018-04-16T18:01:13.768Z,14.77
2018-04-16T18:03:42.560Z,17.00
2018-04-16T18:06:10.324Z,16.70
2018-04-16T18:08:41.587Z,11.23
2018-04-16T18:11:11.712Z,20.07
2018-04-16T18:13:39.611Z,23.37
2018-04-16T18:16:07.377Z,15.27
2018-04-16T18:18:35.181Z,13.13
2018-04-16T18:21:02.959Z,6.97
2018-04-16T18:23:30.760Z,18.83
2018-04-16T18:25:58.516Z,14.43
2018-04-16T18:28:27.185Z,21.20
2018-04-16T18:30:56.937Z,19.30
2018-04-16T18:33:24.685Z,7.07
2018-04-16T18:35:52.486Z,8.90
2018-04-16T18:38:20.518Z,13.17
2018-04-16T18:40:49.195Z,13.63
2018-04-16T18:43:17.798Z,13.60
2018-04-16T18:45:45.623Z,15.40
2018-04-16T18:48:13.866Z,15.00
2018-04-16T18:50:41.614Z,9.80
2018-04-16T18:53:09.371Z,15.30
2018-04-16T18:55:37.225Z,12.80
2018-04-16T18:58:05.936Z,12.67
2018-04-16T19:00:34.109Z,18.20
2018-04-16T19:03:01.952Z,19.73
2018-04-16T19:05:31.127Z,6.77
2018-04-16T19:07:58.914Z,20.23
2018-04-16T19:10:26.765Z,22.87
2018-04-16T19:12:55.493Z,18.07
2018-04-16T19:15:23.317Z,21.17
2018-04-16T19:17:58.915Z,15.50
2018-04-16T19:20:32.125Z,19.60
2018-04-16T19:23:00.138Z,23.47
2018-04-16T19:25:29.732Z,12.40
2018-04-16T19:28:06.031Z,12.83
2018-04-16T19:30:36.101Z,19.93
2018-04-16T19:33:11.544Z,17.37
2018-04-16T19:35:41.505Z,14.37
2018-04-16T19:38:18.269Z,15.93
2018-04-16T19:40:49.491Z,12.03
2018-04-16T19:43:19.498Z,13.90
2018-04-16T19:45:48.862Z,14.60
2018-04-16T19:48:20.488Z,20.03
2018-04-16T19:50:50.237Z,16.70
2018-04-16T19:53:18.350Z,13.40
2018-04-16T19:58:48.312Z,17.00
2018-04-16T20:01:16.980Z,18.77
2018-04-16T20:03:51.948Z,13.13
2018-04-16T20:06:20.027Z,18.43
2018-04-16T20:08:50.200Z,11.40
2018-04-16T20:11:24.717Z,16.30
2018-04-16T20:13:53.688Z,20.10
2018-04-16T20:16:22.318Z,16.30
2018-04-16T20:18:51.793Z,24.00
2018-04-16T20:21:19.679Z,21.23
2018-04-16T20:23:48.809Z,21.40
2018-04-16T20:26:16.664Z,11.60
2018-04-16T20:28:45.218Z,15.90
2018-04-16T20:31:16.276Z,14.37
2018-04-16T20:33:44.185Z,17.37
2018-04-16T20:36:12.488Z,18.13
2018-04-16T20:38:42.294Z,22.43
2018-04-16T20:41:11.094Z,22.13
2018-04-16T20:43:41.761Z,14.93
2018-04-16T20:46:10.275Z,35.60
2018-04-16T20:48:39.931Z,18.70
2018-04-16T20:51:07.822Z,14.13
2018-04-16T20:53:36.376Z,22.77
2018-04-16T20:56:04.248Z,17.03
2018-04-16T20:58:32.039Z,17.93
2018-04-16T21:01:01.201Z,19.00
2018-04-16T21:03:29.036Z,24.57
2018-04-16T21:05:56.795Z,21.77
2018-04-16T21:08:24.605Z,10.50
2018-04-16T21:10:52.447Z,21.90
2018-04-16T21:13:20.265Z,11.37
2018-04-16T21:15:48.998Z,18.00
2018-04-16T21:18:16.739Z,21.83
2018-04-16T21:20:44.539Z,17.73
2018-04-16T21:23:12.676Z,25.70
2018-04-16T21:25:40.489Z,22.63
2018-04-16T21:28:08.300Z,11.53
2018-04-16T21:30:36.860Z,10.30
2018-04-16T21:33:04.661Z,16.73
2018-04-16T21:35:32.576Z,21.90
2018-04-16T21:38:00.319Z,24.87
2018-04-16T21:40:28.100Z,28.73
2018-04-16T21:42:55.941Z,12.13
2018-04-16T21:45:23.780Z,13.10
2018-04-16T21:47:52.296Z,19.37
2018-04-16T21:50:20.055Z,17.00
2018-04-16T21:52:47.840Z,22.73
2018-04-16T21:55:15.779Z,16.73
2018-04-16T21:57:43.532Z,12.30
2018-04-16T22:00:12.921Z,21.83
2018-04-16T22:02:41.576Z,23.73
2018-04-16T22:05:09.316Z,19.80
2018-04-16T22:07:37.134Z,12.60
2018-04-16T22:10:05.805Z,21.83
2018-04-16T22:12:33.565Z,9.07
2018-04-16T22:15:02.916Z,13.93
2018-04-16T22:17:30.805Z,14.33
2018-04-16T22:19:58.580Z,6.77
2018-04-16T22:22:26.451Z,25.97
2018-04-16T22:24:54.342Z,19.87
2018-04-16T22:27:22.081Z,13.13
2018-04-16T22:29:49.869Z,13.27
2018-04-16T22:32:17.670Z,11.47
2018-04-16T22:34:45.501Z,14.03
2018-04-16T22:37:13.269Z,17.07
2018-04-16T22:39:41.074Z,18.83
2018-04-16T22:42:08.821Z,25.87
2018-04-16T22:44:37.430Z,15.40
2018-04-16T22:47:05.180Z,11.37
2018-04-16T22:49:33.132Z,28.63
2018-04-16T22:52:01.694Z,12.60
2018-04-16T22:54:29.452Z,12.47
2018-04-16T22:56:57.239Z,17.20
2018-04-16T22:59:25.770Z,17.27
2018-04-16T23:01:53.577Z,10.80
2018-04-16T23:04:21.339Z,14.97
2018-04-16T23:06:49.126Z,8.80
2018-04-16T23:09:17.640Z,10.67
2018-04-16T23:11:45.829Z,21.43
2018-04-16T23:14:13.589Z,14.53
2018-04-16T23:16:41.423Z,24.53
2018-04-16T23:19:10.132Z,10.93
2018-04-16T23:21:37.918Z,9.67
2018-04-16T23:24:05.670Z,30.10
2018-04-16T23:26:33.458Z,21.80
2018-04-16T23:29:01.271Z,18.10
2018-04-16T23:31:29.861Z,20.93
2018-04-16T23:33:57.611Z,12.37
2018-04-16T23:36:26.145Z,17.97
2018-04-16T23:38:53.996Z,18.17
2018-04-16T23:41:21.745Z,31.43
2018-04-16T23:43:49.628Z,23.43
2018-04-16T23:46:17.391Z,16.93
2018-04-16T23:48:45.134Z,22.40
2018-04-16T23:51:13.801Z,15.80
2018-04-16T23:53:42.335Z,16.83
2018-04-16T23:56:10.150Z,19.20
2018-04-16T23:58:38.759Z,14.50
